sensor_id;sensor_type;location;lat;lon;timestamp;P1;durP1;ratioP1;P2;durP2;ratioP2
51594;SDS011;37677;53.254;6.594;2022-07-18T00:02:16;7.57;;;4.57;;
51594;SDS011;37677;53.254;6.594;2022-07-18T00:04:42;7.68;;;4.97;;
51594;SDS011;37677;53.254;6.594;2022-07-18T00:07:08;6.70;;;4.97;;
51594;SDS011;37677;53.254;6.594;2022-07-18T00:09:36;8.32;;;4.68;;
51594;SDS011;37677;53.254;6.594;2022-07-18T00:12:03;8.20;;;4.50;;
51594;SDS011;37677;53.254;6.594;2022-07-18T00:14:30;5.75;;;4.75;;
51594;SDS011;37677;53.254;6.594;2022-07-18T00:16:56;6.30;;;4.90;;
51594;SDS011;37677;53.254;6.594;2022-07-18T00:19:21;8.48;;;5.00;;
51594;SDS011;37677;53.254;6.594;2022-07-18T00:21:47;7.00;;;4.90;;
51594;SDS011;37677;53.254;6.594;2022-07-18T00:24:13;6.70;;;4.53;;
51594;SDS011;37677;53.254;6.594;2022-07-18T00:26:38;6.57;;;4.55;;
51594;SDS011;37677;53.254;6.594;2022-07-18T00:29:04;9.63;;;4.45;;
51594;SDS011;37677;53.254;6.594;2022-07-18T00:31:30;8.20;;;4.53;;
51594;SDS011;37677;53.254;6.594;2022-07-18T00:33:56;7.32;;;5.05;;
51594;SDS011;37677;53.254;6.594;2022-07-18T00:36:21;7.75;;;5.30;;
51594;SDS011;37677;53.254;6.594;2022-07-18T00:38:47;8.10;;;5.05;;
51594;SDS011;37677;53.254;6.594;2022-07-18T00:41:16;7.57;;;5.18;;
51594;SDS011;37677;53.254;6.594;2022-07-18T00:43:42;7.60;;;5.43;;
51594;SDS011;37677;53.254;6.594;2022-07-18T00:46:08;6.70;;;5.10;;
51594;SDS011;37677;53.254;6.594;2022-07-18T00:48:36;10.82;;;5.65;;
51594;SDS011;37677;53.254;6.594;2022-07-18T00:51:03;6.93;;;5.47;;
51594;SDS011;37677;53.254;6.594;2022-07-18T00:53:29;9.15;;;5.43;;
51594;SDS011;37677;53.254;6.594;2022-07-18T00:55:55;9.00;;;5.75;;
51594;SDS011;37677;53.254;6.594;2022-07-18T00:58:20;6.18;;;5.15;;
51594;SDS011;37677;53.254;6.594;2022-07-18T01:00:46;6.97;;;4.95;;
51594;SDS011;37677;53.254;6.594;2022-07-18T01:03:30;7.43;;;5.20;;
51594;SDS011;37677;53.254;6.594;2022-07-18T01:05:56;5.90;;;5.20;;
51594;SDS011;37677;53.254;6.594;2022-07-18T01:08:22;6.55;;;5.03;;
51594;SDS011;37677;53.254;6.594;2022-07-18T01:10:48;7.65;;;5.30;;
51594;SDS011;37677;53.254;6.594;2022-07-18T01:13:15;6.93;;;5.07;;
51594;SDS011;37677;53.254;6.594;2022-07-18T01:15:41;8.52;;;5.60;;
51594;SDS011;37677;53.254;6.594;2022-07-18T01:18:06;6.70;;;5.28;;
51594;SDS011;37677;53.254;6.594;2022-07-18T01:20:32;9.65;;;5.70;;
51594;SDS011;37677;53.254;6.594;2022-07-18T01:22:58;7.75;;;5.38;;
51594;SDS011;37677;53.254;6.594;2022-07-18T01:25:24;8.15;;;4.93;;
51594;SDS011;37677;53.254;6.594;2022-07-18T01:27:50;6.07;;;5.15;;
51594;SDS011;37677;53.254;6.594;2022-07-18T01:30:16;6.90;;;5.00;;
51594;SDS011;37677;53.254;6.594;2022-07-18T01:32:42;7.30;;;5.05;;
51594;SDS011;37677;53.254;6.594;2022-07-18T01:35:08;7.10;;;5.50;;
51594;SDS011;37677;53.254;6.594;2022-07-18T01:37:35;6.65;;;5.40;;
51594;SDS011;37677;53.254;6.594;2022-07-18T01:40:00;8.25;;;6.00;;
51594;SDS011;37677;53.254;6.594;2022-07-18T01:42:26;6.50;;;5.53;;
51594;SDS011;37677;53.254;6.594;2022-07-18T01:44:52;6.75;;;5.53;;
51594;SDS011;37677;53.254;6.594;2022-07-18T01:47:18;6.38;;;5.22;;
51594;SDS011;37677;53.254;6.594;2022-07-18T01:49:43;7.50;;;5.45;;
51594;SDS011;37677;53.254;6.594;2022-07-18T01:52:09;8.77;;;6.00;;
51594;SDS011;37677;53.254;6.594;2022-07-18T01:54:35;9.48;;;5.97;;
51594;SDS011;37677;53.254;6.594;2022-07-18T01:57:02;8.93;;;5.93;;
51594;SDS011;37677;53.254;6.594;2022-07-18T01:59:29;8.68;;;5.78;;
51594;SDS011;37677;53.254;6.594;2022-07-18T02:01:55;7.95;;;5.53;;
51594;SDS011;37677;53.254;6.594;2022-07-18T02:04:21;7.60;;;5.63;;
51594;SDS011;37677;53.254;6.594;2022-07-18T02:07:06;6.65;;;5.95;;
51594;SDS011;37677;53.254;6.594;2022-07-18T02:09:32;10.05;;;5.63;;
51594;SDS011;37677;53.254;6.594;2022-07-18T02:11:58;5.88;;;5.18;;
51594;SDS011;37677;53.254;6.594;2022-07-18T02:14:23;8.23;;;5.95;;
51594;SDS011;37677;53.254;6.594;2022-07-18T02:16:49;9.77;;;6.22;;
51594;SDS011;37677;53.254;6.594;2022-07-18T02:19:15;7.60;;;5.65;;
51594;SDS011;37677;53.254;6.594;2022-07-18T02:21:40;8.25;;;5.82;;
51594;SDS011;37677;53.254;6.594;2022-07-18T02:24:06;6.75;;;6.03;;
51594;SDS011;37677;53.254;6.594;2022-07-18T02:26:32;6.60;;;5.47;;
51594;SDS011;37677;53.254;6.594;2022-07-18T02:28:58;6.07;;;5.47;;
51594;SDS011;37677;53.254;6.594;2022-07-18T02:31:23;10.02;;;6.20;;
51594;SDS011;37677;53.254;6.594;2022-07-18T02:33:49;10.45;;;6.30;;
51594;SDS011;37677;53.254;6.594;2022-07-18T02:36:15;8.70;;;6.40;;
51594;SDS011;37677;53.254;6.594;2022-07-18T02:38:40;8.40;;;6.38;;
51594;SDS011;37677;53.254;6.594;2022-07-18T02:41:06;8.18;;;6.03;;
51594;SDS011;37677;53.254;6.594;2022-07-18T02:43:32;10.05;;;6.28;;
51594;SDS011;37677;53.254;6.594;2022-07-18T02:45:57;6.85;;;5.97;;
51594;SDS011;37677;53.254;6.594;2022-07-18T02:48:23;8.07;;;6.10;;
51594;SDS011;37677;53.254;6.594;2022-07-18T02:50:48;6.93;;;5.90;;
51594;SDS011;37677;53.254;6.594;2022-07-18T02:53:14;7.95;;;6.38;;
51594;SDS011;37677;53.254;6.594;2022-07-18T02:55:40;7.93;;;5.68;;
51594;SDS011;37677;53.254;6.594;2022-07-18T02:58:05;12.23;;;6.35;;
51594;SDS011;37677;53.254;6.594;2022-07-18T03:00:31;8.85;;;6.43;;
51594;SDS011;37677;53.254;6.594;2022-07-18T03:02:57;8.13;;;5.85;;
51594;SDS011;37677;53.254;6.594;2022-07-18T03:05:22;10.55;;;6.35;;
51594;SDS011;37677;53.254;6.594;2022-07-18T03:07:48;8.18;;;6.10;;
51594;SDS011;37677;53.254;6.594;2022-07-18T03:10:14;8.68;;;6.50;;
51594;SDS011;37677;53.254;6.594;2022-07-18T03:12:40;8.70;;;6.28;;
51594;SDS011;37677;53.254;6.594;2022-07-18T03:15:07;9.35;;;6.40;;
51594;SDS011;37677;53.254;6.594;2022-07-18T03:17:33;10.23;;;6.55;;
51594;SDS011;37677;53.254;6.594;2022-07-18T03:19:59;8.65;;;6.50;;
51594;SDS011;37677;53.254;6.594;2022-07-18T03:22:24;9.68;;;6.72;;
51594;SDS011;37677;53.254;6.594;2022-07-18T03:24:50;7.70;;;6.28;;
51594;SDS011;37677;53.254;6.594;2022-07-18T03:27:16;9.15;;;6.45;;
51594;SDS011;37677;53.254;6.594;2022-07-18T03:29:41;10.90;;;6.53;;
51594;SDS011;37677;53.254;6.594;2022-07-18T03:32:07;8.35;;;6.53;;
51594;SDS011;37677;53.254;6.594;2022-07-18T03:34:32;11.98;;;5.95;;
51594;SDS011;37677;53.254;6.594;2022-07-18T03:36:58;9.40;;;6.40;;
51594;SDS011;37677;53.254;6.594;2022-07-18T03:39:24;8.38;;;6.20;;
51594;SDS011;37677;53.254;6.594;2022-07-18T03:41:51;8.88;;;6.50;;
51594;SDS011;37677;53.254;6.594;2022-07-18T03:44:17;8.95;;;6.70;;
51594;SDS011;37677;53.254;6.594;2022-07-18T03:46:43;7.53;;;6.22;;
51594;SDS011;37677;53.254;6.594;2022-07-18T03:49:08;10.15;;;7.45;;
51594;SDS011;37677;53.254;6.594;2022-07-18T03:51:34;7.60;;;6.78;;
51594;SDS011;37677;53.254;6.594;2022-07-18T03:54:00;7.82;;;5.95;;
51594;SDS011;37677;53.254;6.594;2022-07-18T03:56:26;9.20;;;7.00;;
51594;SDS011;37677;53.254;6.594;2022-07-18T03:58:52;8.68;;;6.40;;
51594;SDS011;37677;53.254;6.594;2022-07-18T04:01:17;8.35;;;6.28;;
51594;SDS011;37677;53.254;6.594;2022-07-18T04:03:43;8.98;;;7.03;;
51594;SDS011;37677;53.254;6.594;2022-07-18T04:06:09;7.93;;;6.22;;
51594;SDS011;37677;53.254;6.594;2022-07-18T04:08:34;8.73;;;6.40;;
51594;SDS011;37677;53.254;6.594;2022-07-18T04:11:00;8.30;;;6.15;;
51594;SDS011;37677;53.254;6.594;2022-07-18T04:13:26;7.82;;;5.85;;
51594;SDS011;37677;53.254;6.594;2022-07-18T04:15:51;10.77;;;6.22;;
51594;SDS011;37677;53.254;6.594;2022-07-18T04:18:17;9.05;;;6.45;;
51594;SDS011;37677;53.254;6.594;2022-07-18T04:20:42;6.55;;;5.78;;
51594;SDS011;37677;53.254;6.594;2022-07-18T04:23:09;9.30;;;6.28;;
51594;SDS011;37677;53.254;6.594;2022-07-18T04:25:36;10.70;;;6.10;;
51594;SDS011;37677;53.254;6.594;2022-07-18T04:28:07;9.48;;;5.90;;
51594;SDS011;37677;53.254;6.594;2022-07-18T04:30:35;6.72;;;5.53;;
51594;SDS011;37677;53.254;6.594;2022-07-18T04:33:02;7.35;;;6.05;;
51594;SDS011;37677;53.254;6.594;2022-07-18T04:35:29;8.35;;;5.50;;
51594;SDS011;37677;53.254;6.594;2022-07-18T04:37:55;11.10;;;5.45;;
51594;SDS011;37677;53.254;6.594;2022-07-18T04:40:21;7.72;;;6.40;;
51594;SDS011;37677;53.254;6.594;2022-07-18T04:42:47;8.57;;;6.00;;
51594;SDS011;37677;53.254;6.594;2022-07-18T04:45:13;15.90;;;6.55;;
51594;SDS011;37677;53.254;6.594;2022-07-18T04:47:40;10.52;;;5.55;;
51594;SDS011;37677;53.254;6.594;2022-07-18T04:50:06;8.45;;;5.72;;
51594;SDS011;37677;53.254;6.594;2022-07-18T04:52:41;9.85;;;5.55;;
51594;SDS011;37677;53.254;6.594;2022-07-18T04:55:08;9.50;;;5.30;;
51594;SDS011;37677;53.254;6.594;2022-07-18T04:57:35;7.18;;;4.80;;
51594;SDS011;37677;53.254;6.594;2022-07-18T05:00:06;5.63;;;4.40;;
51594;SDS011;37677;53.254;6.594;2022-07-18T05:02:33;7.70;;;5.43;;
51594;SDS011;37677;53.254;6.594;2022-07-18T05:04:59;10.25;;;4.68;;
51594;SDS011;37677;53.254;6.594;2022-07-18T05:07:24;7.35;;;4.47;;
51594;SDS011;37677;53.254;6.594;2022-07-18T05:09:50;8.00;;;4.97;;
51594;SDS011;37677;53.254;6.594;2022-07-18T05:12:16;6.53;;;4.50;;
51594;SDS011;37677;53.254;6.594;2022-07-18T05:14:43;6.65;;;4.13;;
51594;SDS011;37677;53.254;6.594;2022-07-18T05:17:09;5.80;;;3.90;;
51594;SDS011;37677;53.254;6.594;2022-07-18T05:19:35;7.15;;;4.80;;
51594;SDS011;37677;53.254;6.594;2022-07-18T05:22:00;6.00;;;3.80;;
51594;SDS011;37677;53.254;6.594;2022-07-18T05:24:26;6.50;;;3.90;;
51594;SDS011;37677;53.254;6.594;2022-07-18T05:26:52;11.60;;;4.20;;
51594;SDS011;37677;53.254;6.594;2022-07-18T05:29:17;9.35;;;3.95;;
51594;SDS011;37677;53.254;6.594;2022-07-18T05:31:43;6.45;;;3.55;;
51594;SDS011;37677;53.254;6.594;2022-07-18T05:34:08;4.35;;;3.40;;
51594;SDS011;37677;53.254;6.594;2022-07-18T05:36:34;10.15;;;3.47;;
51594;SDS011;37677;53.254;6.594;2022-07-18T05:39:00;8.98;;;3.65;;
51594;SDS011;37677;53.254;6.594;2022-07-18T05:41:26;6.38;;;3.08;;
51594;SDS011;37677;53.254;6.594;2022-07-18T05:43:52;6.03;;;3.15;;
51594;SDS011;37677;53.254;6.594;2022-07-18T05:46:18;5.75;;;3.10;;
51594;SDS011;37677;53.254;6.594;2022-07-18T05:48:43;8.40;;;3.22;;
51594;SDS011;37677;53.254;6.594;2022-07-18T05:51:10;6.00;;;3.33;;
51594;SDS011;37677;53.254;6.594;2022-07-18T05:53:36;4.53;;;2.80;;
51594;SDS011;37677;53.254;6.594;2022-07-18T05:56:02;7.40;;;3.30;;
51594;SDS011;37677;53.254;6.594;2022-07-18T05:58:28;5.03;;;2.90;;
51594;SDS011;37677;53.254;6.594;2022-07-18T06:00:54;13.55;;;3.20;;
51594;SDS011;37677;53.254;6.594;2022-07-18T06:03:19;11.48;;;2.90;;
51594;SDS011;37677;53.254;6.594;2022-07-18T06:05:45;4.35;;;2.95;;
51594;SDS011;37677;53.254;6.594;2022-07-18T06:08:11;8.23;;;2.75;;
51594;SDS011;37677;53.254;6.594;2022-07-18T06:10:36;5.85;;;2.50;;
51594;SDS011;37677;53.254;6.594;2022-07-18T06:13:02;5.65;;;2.80;;
51594;SDS011;37677;53.254;6.594;2022-07-18T06:15:28;4.05;;;2.50;;
51594;SDS011;37677;53.254;6.594;2022-07-18T06:17:53;5.13;;;2.78;;
51594;SDS011;37677;53.254;6.594;2022-07-18T06:20:19;5.05;;;2.40;;
51594;SDS011;37677;53.254;6.594;2022-07-18T06:22:45;4.93;;;2.92;;
51594;SDS011;37677;53.254;6.594;2022-07-18T06:25:11;5.00;;;2.83;;
51594;SDS011;37677;53.254;6.594;2022-07-18T06:27:37;7.03;;;2.35;;
51594;SDS011;37677;53.254;6.594;2022-07-18T06:30:03;5.63;;;2.80;;
51594;SDS011;37677;53.254;6.594;2022-07-18T06:32:30;4.93;;;2.70;;
51594;SDS011;37677;53.254;6.594;2022-07-18T06:34:56;4.85;;;2.53;;
51594;SDS011;37677;53.254;6.594;2022-07-18T06:37:21;4.90;;;2.53;;
51594;SDS011;37677;53.254;6.594;2022-07-18T06:39:47;3.88;;;2.60;;
51594;SDS011;37677;53.254;6.594;2022-07-18T06:42:13;6.50;;;3.03;;
51594;SDS011;37677;53.254;6.594;2022-07-18T06:44:38;7.60;;;3.05;;
51594;SDS011;37677;53.254;6.594;2022-07-18T06:47:04;7.90;;;2.88;;
51594;SDS011;37677;53.254;6.594;2022-07-18T06:49:30;6.60;;;2.83;;
51594;SDS011;37677;53.254;6.594;2022-07-18T06:51:55;5.68;;;2.50;;
51594;SDS011;37677;53.254;6.594;2022-07-18T06:54:21;7.32;;;2.63;;
51594;SDS011;37677;53.254;6.594;2022-07-18T06:56:52;5.63;;;2.42;;
51594;SDS011;37677;53.254;6.594;2022-07-18T06:59:19;6.07;;;3.08;;
51594;SDS011;37677;53.254;6.594;2022-07-18T07:01:45;4.93;;;2.55;;
51594;SDS011;37677;53.254;6.594;2022-07-18T07:04:10;4.00;;;2.45;;
51594;SDS011;37677;53.254;6.594;2022-07-18T07:06:36;4.55;;;2.40;;
51594;SDS011;37677;53.254;6.594;2022-07-18T07:09:05;4.22;;;2.55;;
51594;SDS011;37677;53.254;6.594;2022-07-18T07:11:31;9.50;;;2.97;;
51594;SDS011;37677;53.254;6.594;2022-07-18T07:13:57;9.00;;;2.45;;
51594;SDS011;37677;53.254;6.594;2022-07-18T07:16:23;7.63;;;2.20;;
51594;SDS011;37677;53.254;6.594;2022-07-18T07:18:48;3.60;;;2.13;;
51594;SDS011;37677;53.254;6.594;2022-07-18T07:21:14;3.55;;;2.20;;
51594;SDS011;37677;53.254;6.594;2022-07-18T07:23:40;5.07;;;1.92;;
51594;SDS011;37677;53.254;6.594;2022-07-18T07:26:09;5.00;;;2.22;;
51594;SDS011;37677;53.254;6.594;2022-07-18T07:28:34;6.28;;;1.77;;
51594;SDS011;37677;53.254;6.594;2022-07-18T07:31:00;7.70;;;2.15;;
51594;SDS011;37677;53.254;6.594;2022-07-18T07:33:26;5.18;;;2.30;;
51594;SDS011;37677;53.254;6.594;2022-07-18T07:35:51;8.65;;;2.47;;
51594;SDS011;37677;53.254;6.594;2022-07-18T07:38:17;4.55;;;2.10;;
51594;SDS011;37677;53.254;6.594;2022-07-18T07:40:44;6.85;;;2.20;;
51594;SDS011;37677;53.254;6.594;2022-07-18T07:43:10;11.05;;;2.50;;
51594;SDS011;37677;53.254;6.594;2022-07-18T07:45:37;11.40;;;2.22;;
51594;SDS011;37677;53.254;6.594;2022-07-18T07:48:03;4.45;;;2.20;;
51594;SDS011;37677;53.254;6.594;2022-07-18T07:50:29;4.30;;;1.95;;
51594;SDS011;37677;53.254;6.594;2022-07-18T07:52:56;4.22;;;2.33;;
51594;SDS011;37677;53.254;6.594;2022-07-18T07:55:22;4.78;;;2.10;;
51594;SDS011;37677;53.254;6.594;2022-07-18T07:57:48;3.65;;;2.00;;
51594;SDS011;37677;53.254;6.594;2022-07-18T08:00:14;4.40;;;2.10;;
51594;SDS011;37677;53.254;6.594;2022-07-18T08:02:50;6.05;;;2.00;;
51594;SDS011;37677;53.254;6.594;2022-07-18T08:05:21;4.70;;;1.98;;
51594;SDS011;37677;53.254;6.594;2022-07-18T08:07:47;10.95;;;2.25;;
51594;SDS011;37677;53.254;6.594;2022-07-18T08:10:13;3.83;;;1.95;;
51594;SDS011;37677;53.254;6.594;2022-07-18T08:12:39;6.10;;;2.17;;
51594;SDS011;37677;53.254;6.594;2022-07-18T08:15:05;5.07;;;2.42;;
51594;SDS011;37677;53.254;6.594;2022-07-18T08:17:31;4.72;;;2.00;;
51594;SDS011;37677;53.254;6.594;2022-07-18T08:19:57;6.22;;;2.20;;
51594;SDS011;37677;53.254;6.594;2022-07-18T08:22:22;5.28;;;2.10;;
51594;SDS011;37677;53.254;6.594;2022-07-18T08:24:48;3.53;;;1.80;;
51594;SDS011;37677;53.254;6.594;2022-07-18T08:27:14;4.80;;;1.70;;
51594;SDS011;37677;53.254;6.594;2022-07-18T08:29:40;4.80;;;2.05;;
51594;SDS011;37677;53.254;6.594;2022-07-18T08:32:06;5.40;;;2.65;;
51594;SDS011;37677;53.254;6.594;2022-07-18T08:34:33;10.52;;;1.80;;
51594;SDS011;37677;53.254;6.594;2022-07-18T08:36:59;4.40;;;1.88;;
51594;SDS011;37677;53.254;6.594;2022-07-18T08:39:24;5.28;;;2.38;;
51594;SDS011;37677;53.254;6.594;2022-07-18T08:41:50;4.88;;;1.85;;
51594;SDS011;37677;53.254;6.594;2022-07-18T08:44:17;5.43;;;1.88;;
51594;SDS011;37677;53.254;6.594;2022-07-18T08:46:49;6.68;;;2.20;;
51594;SDS011;37677;53.254;6.594;2022-07-18T08:49:17;7.18;;;2.88;;
51594;SDS011;37677;53.254;6.594;2022-07-18T08:51:43;6.68;;;2.22;;
51594;SDS011;37677;53.254;6.594;2022-07-18T08:54:09;11.38;;;2.22;;
51594;SDS011;37677;53.254;6.594;2022-07-18T08:56:35;4.13;;;1.83;;
51594;SDS011;37677;53.254;6.594;2022-07-18T08:59:01;5.88;;;2.30;;
51594;SDS011;37677;53.254;6.594;2022-07-18T09:01:29;4.57;;;1.80;;
51594;SDS011;37677;53.254;6.594;2022-07-18T09:03:55;6.45;;;2.67;;
51594;SDS011;37677;53.254;6.594;2022-07-18T09:06:47;6.00;;;1.85;;
51594;SDS011;37677;53.254;6.594;2022-07-18T09:09:14;5.32;;;2.25;;
51594;SDS011;37677;53.254;6.594;2022-07-18T09:11:49;5.32;;;2.15;;
51594;SDS011;37677;53.254;6.594;2022-07-18T09:17:04;4.60;;;1.80;;
51594;SDS011;37677;53.254;6.594;2022-07-18T09:19:35;6.70;;;2.00;;
51594;SDS011;37677;53.254;6.594;2022-07-18T09:22:12;3.85;;;1.80;;
51594;SDS011;37677;53.254;6.594;2022-07-18T09:24:53;5.75;;;1.70;;
51594;SDS011;37677;53.254;6.594;2022-07-18T09:27:24;8.48;;;2.00;;
51594;SDS011;37677;53.254;6.594;2022-07-18T09:32:49;6.95;;;2.03;;
51594;SDS011;37677;53.254;6.594;2022-07-18T09:35:18;9.63;;;2.58;;
51594;SDS011;37677;53.254;6.594;2022-07-18T09:37:53;7.65;;;2.30;;
51594;SDS011;37677;53.254;6.594;2022-07-18T09:40:21;6.88;;;2.10;;
51594;SDS011;37677;53.254;6.594;2022-07-18T09:42:53;8.05;;;2.50;;
51594;SDS011;37677;53.254;6.594;2022-07-18T09:45:29;4.03;;;2.10;;
51594;SDS011;37677;53.254;6.594;2022-07-18T09:47:57;4.07;;;1.80;;
51594;SDS011;37677;53.254;6.594;2022-07-18T09:55:44;13.05;;;2.65;;
51594;SDS011;37677;53.254;6.594;2022-07-18T09:58:19;6.10;;;1.98;;
51594;SDS011;37677;53.254;6.594;2022-07-18T10:00:49;4.32;;;1.77;;
51594;SDS011;37677;53.254;6.594;2022-07-18T10:03:15;4.55;;;1.92;;
51594;SDS011;37677;53.254;6.594;2022-07-18T10:05:43;5.57;;;2.10;;
51594;SDS011;37677;53.254;6.594;2022-07-18T10:08:11;3.53;;;1.60;;
51594;SDS011;37677;53.254;6.594;2022-07-18T10:10:39;5.32;;;1.88;;
51594;SDS011;37677;53.254;6.594;2022-07-18T10:13:06;5.15;;;1.90;;
51594;SDS011;37677;53.254;6.594;2022-07-18T10:15:33;5.65;;;2.10;;
51594;SDS011;37677;53.254;6.594;2022-07-18T10:18:01;10.30;;;2.40;;
51594;SDS011;37677;53.254;6.594;2022-07-18T10:20:31;3.78;;;1.83;;
51594;SDS011;37677;53.254;6.594;2022-07-18T10:23:02;6.65;;;2.42;;
51594;SDS011;37677;53.254;6.594;2022-07-18T10:25:33;5.30;;;1.98;;
51594;SDS011;37677;53.254;6.594;2022-07-18T10:28:04;5.63;;;2.42;;
51594;SDS011;37677;53.254;6.594;2022-07-18T10:30:40;5.30;;;2.15;;
51594;SDS011;37677;53.254;6.594;2022-07-18T10:36:12;6.05;;;2.28;;
51594;SDS011;37677;53.254;6.594;2022-07-18T10:39:02;3.47;;;2.35;;
51594;SDS011;37677;53.254;6.594;2022-07-18T10:41:27;4.13;;;2.30;;
51594;SDS011;37677;53.254;6.594;2022-07-18T10:43:53;6.55;;;2.50;;
51594;SDS011;37677;53.254;6.594;2022-07-18T10:46:19;5.13;;;2.80;;
51594;SDS011;37677;53.254;6.594;2022-07-18T10:48:52;4.40;;;1.73;;
51594;SDS011;37677;53.254;6.594;2022-07-18T10:51:18;4.78;;;2.70;;
51594;SDS011;37677;53.254;6.594;2022-07-18T10:59:17;6.68;;;2.45;;
51594;SDS011;37677;53.254;6.594;2022-07-18T11:01:48;7.32;;;2.67;;
51594;SDS011;37677;53.254;6.594;2022-07-18T11:04:23;5.50;;;2.83;;
51594;SDS011;37677;53.254;6.594;2022-07-18T11:07:08;7.28;;;3.05;;
51594;SDS011;37677;53.254;6.594;2022-07-18T11:20:22;7.45;;;3.55;;
51594;SDS011;37677;53.254;6.594;2022-07-18T11:22:48;6.40;;;3.17;;
51594;SDS011;37677;53.254;6.594;2022-07-18T11:25:16;4.63;;;3.58;;
51594;SDS011;37677;53.254;6.594;2022-07-18T11:27:43;4.95;;;3.30;;
51594;SDS011;37677;53.254;6.594;2022-07-18T11:30:09;8.90;;;2.95;;
51594;SDS011;37677;53.254;6.594;2022-07-18T11:32:35;4.90;;;3.25;;
51594;SDS011;37677;53.254;6.594;2022-07-18T11:35:02;5.82;;;3.42;;
51594;SDS011;37677;53.254;6.594;2022-07-18T11:37:31;8.23;;;4.13;;
51594;SDS011;37677;53.254;6.594;2022-07-18T11:40:03;7.55;;;3.90;;
51594;SDS011;37677;53.254;6.594;2022-07-18T11:42:35;6.57;;;3.70;;
51594;SDS011;37677;53.254;6.594;2022-07-18T11:45:05;8.07;;;3.72;;
51594;SDS011;37677;53.254;6.594;2022-07-18T11:47:36;7.32;;;3.72;;
51594;SDS011;37677;53.254;6.594;2022-07-18T11:50:26;7.65;;;3.55;;
51594;SDS011;37677;53.254;6.594;2022-07-18T11:53:00;7.45;;;3.35;;
51594;SDS011;37677;53.254;6.594;2022-07-18T11:55:35;5.82;;;3.50;;
51594;SDS011;37677;53.254;6.594;2022-07-18T11:58:12;4.40;;;3.38;;
51594;SDS011;37677;53.254;6.594;2022-07-18T12:00:39;6.80;;;3.63;;
51594;SDS011;37677;53.254;6.594;2022-07-18T12:03:07;6.38;;;3.58;;
51594;SDS011;37677;53.254;6.594;2022-07-18T12:05:45;4.63;;;3.28;;
51594;SDS011;37677;53.254;6.594;2022-07-18T12:08:31;12.63;;;4.20;;
51594;SDS011;37677;53.254;6.594;2022-07-18T12:13:59;8.52;;;3.78;;
51594;SDS011;37677;53.254;6.594;2022-07-18T12:19:07;3.83;;;3.20;;
51594;SDS011;37677;53.254;6.594;2022-07-18T12:21:49;6.43;;;3.45;;
51594;SDS011;37677;53.254;6.594;2022-07-18T12:32:49;4.95;;;3.40;;
51594;SDS011;37677;53.254;6.594;2022-07-18T12:35:19;4.00;;;3.38;;
51594;SDS011;37677;53.254;6.594;2022-07-18T12:43:29;5.90;;;3.78;;
51594;SDS011;37677;53.254;6.594;2022-07-18T12:46:07;5.25;;;3.88;;
51594;SDS011;37677;53.254;6.594;2022-07-18T12:48:34;7.43;;;3.45;;
51594;SDS011;37677;53.254;6.594;2022-07-18T12:51:05;6.13;;;3.92;;
51594;SDS011;37677;53.254;6.594;2022-07-18T12:53:33;6.18;;;3.70;;
51594;SDS011;37677;53.254;6.594;2022-07-18T12:56:00;4.47;;;3.78;;
51594;SDS011;37677;53.254;6.594;2022-07-18T12:58:26;3.88;;;3.45;;
51594;SDS011;37677;53.254;6.594;2022-07-18T13:00:51;6.93;;;3.88;;
51594;SDS011;37677;53.254;6.594;2022-07-18T13:03:20;7.90;;;3.70;;
51594;SDS011;37677;53.254;6.594;2022-07-18T13:05:46;10.77;;;3.30;;
51594;SDS011;37677;53.254;6.594;2022-07-18T13:08:11;4.95;;;3.47;;
51594;SDS011;37677;53.254;6.594;2022-07-18T13:10:38;6.90;;;3.58;;
51594;SDS011;37677;53.254;6.594;2022-07-18T13:13:05;8.02;;;3.97;;
51594;SDS011;37677;53.254;6.594;2022-07-18T13:15:32;5.93;;;3.38;;
51594;SDS011;37677;53.254;6.594;2022-07-18T13:17:58;5.13;;;3.70;;
51594;SDS011;37677;53.254;6.594;2022-07-18T13:20:24;4.55;;;3.35;;
51594;SDS011;37677;53.254;6.594;2022-07-18T13:22:50;5.32;;;3.20;;
51594;SDS011;37677;53.254;6.594;2022-07-18T13:25:16;5.47;;;3.70;;
51594;SDS011;37677;53.254;6.594;2022-07-18T13:27:42;4.75;;;3.50;;
51594;SDS011;37677;53.254;6.594;2022-07-18T13:30:08;3.78;;;3.38;;
51594;SDS011;37677;53.254;6.594;2022-07-18T13:32:35;5.40;;;3.70;;
51594;SDS011;37677;53.254;6.594;2022-07-18T13:35:01;5.00;;;3.33;;
51594;SDS011;37677;53.254;6.594;2022-07-18T13:37:28;6.28;;;3.90;;
51594;SDS011;37677;53.254;6.594;2022-07-18T13:39:53;8.32;;;3.90;;
51594;SDS011;37677;53.254;6.594;2022-07-18T13:42:19;7.40;;;3.45;;
51594;SDS011;37677;53.254;6.594;2022-07-18T13:44:45;4.55;;;3.63;;
51594;SDS011;37677;53.254;6.594;2022-07-18T13:47:11;4.15;;;3.67;;
51594;SDS011;37677;53.254;6.594;2022-07-18T13:49:37;5.28;;;3.92;;
51594;SDS011;37677;53.254;6.594;2022-07-18T13:52:03;5.43;;;4.03;;
51594;SDS011;37677;53.254;6.594;2022-07-18T13:54:29;4.00;;;3.60;;
51594;SDS011;37677;53.254;6.594;2022-07-18T13:56:54;7.93;;;3.45;;
51594;SDS011;37677;53.254;6.594;2022-07-18T13:59:20;5.18;;;4.05;;
51594;SDS011;37677;53.254;6.594;2022-07-18T14:01:46;5.00;;;3.90;;
51594;SDS011;37677;53.254;6.594;2022-07-18T14:04:11;5.30;;;4.18;;
51594;SDS011;37677;53.254;6.594;2022-07-18T14:06:37;6.57;;;3.75;;
51594;SDS011;37677;53.254;6.594;2022-07-18T14:09:04;4.63;;;3.63;;
51594;SDS011;37677;53.254;6.594;2022-07-18T14:11:30;4.68;;;3.70;;
51594;SDS011;37677;53.254;6.594;2022-07-18T14:14:00;6.15;;;3.58;;
51594;SDS011;37677;53.254;6.594;2022-07-18T14:16:26;4.07;;;3.63;;
51594;SDS011;37677;53.254;6.594;2022-07-18T14:18:52;5.28;;;4.30;;
51594;SDS011;37677;53.254;6.594;2022-07-18T14:21:18;5.43;;;3.63;;
51594;SDS011;37677;53.254;6.594;2022-07-18T14:23:44;4.20;;;3.72;;
51594;SDS011;37677;53.254;6.594;2022-07-18T14:26:10;8.10;;;3.60;;
51594;SDS011;37677;53.254;6.594;2022-07-18T14:28:36;4.72;;;3.42;;
51594;SDS011;37677;53.254;6.594;2022-07-18T14:31:02;9.27;;;3.85;;
51594;SDS011;37677;53.254;6.594;2022-07-18T14:33:27;6.18;;;3.42;;
51594;SDS011;37677;53.254;6.594;2022-07-18T14:35:53;4.00;;;3.60;;
51594;SDS011;37677;53.254;6.594;2022-07-18T14:38:19;5.32;;;3.65;;
51594;SDS011;37677;53.254;6.594;2022-07-18T14:40:44;6.30;;;3.90;;
51594;SDS011;37677;53.254;6.594;2022-07-18T14:43:10;5.50;;;3.70;;
51594;SDS011;37677;53.254;6.594;2022-07-18T14:45:36;5.28;;;3.75;;
51594;SDS011;37677;53.254;6.594;2022-07-18T14:48:02;6.53;;;3.80;;
51594;SDS011;37677;53.254;6.594;2022-07-18T14:50:28;8.38;;;3.70;;
51594;SDS011;37677;53.254;6.594;2022-07-18T14:52:53;4.78;;;3.40;;
51594;SDS011;37677;53.254;6.594;2022-07-18T14:55:19;5.88;;;3.08;;
51594;SDS011;37677;53.254;6.594;2022-07-18T14:57:44;4.55;;;3.60;;
51594;SDS011;37677;53.254;6.594;2022-07-18T15:00:10;5.72;;;3.30;;
51594;SDS011;37677;53.254;6.594;2022-07-18T15:02:37;6.05;;;3.50;;
51594;SDS011;37677;53.254;6.594;2022-07-18T15:05:03;7.22;;;3.47;;
51594;SDS011;37677;53.254;6.594;2022-07-18T15:07:29;4.75;;;3.38;;
51594;SDS011;37677;53.254;6.594;2022-07-18T15:09:55;7.63;;;3.83;;
51594;SDS011;37677;53.254;6.594;2022-07-18T15:12:21;4.55;;;3.40;;
51594;SDS011;37677;53.254;6.594;2022-07-18T15:14:47;4.30;;;3.15;;
51594;SDS011;37677;53.254;6.594;2022-07-18T15:17:12;4.28;;;2.92;;
51594;SDS011;37677;53.254;6.594;2022-07-18T15:19:38;4.28;;;3.10;;
51594;SDS011;37677;53.254;6.594;2022-07-18T15:22:04;3.35;;;2.97;;
51594;SDS011;37677;53.254;6.594;2022-07-18T15:24:32;5.50;;;2.95;;
51594;SDS011;37677;53.254;6.594;2022-07-18T15:26:58;5.18;;;3.40;;
51594;SDS011;37677;53.254;6.594;2022-07-18T15:29:25;5.32;;;3.08;;
51594;SDS011;37677;53.254;6.594;2022-07-18T15:31:51;4.25;;;3.22;;
51594;SDS011;37677;53.254;6.594;2022-07-18T15:34:16;7.00;;;3.20;;
51594;SDS011;37677;53.254;6.594;2022-07-18T15:36:42;5.65;;;3.72;;